Terminal Aerodrome Forecast
Issued by NWS

Home | Current Version | Previous Version | Graphics & Text | Print | Product List | Glossary On
Versions: 1 2 3 4 5 6 7 8 9 10 11 12 13 14 15 16
000
FTUS45 KGGW 250206 AAA
TAFGDV
TAF AMD
KGDV 250206Z 2502/2524 VRB06KT P6SM SCT060 BKN120
     FM250700 02008KT P6SM VCSH SCT030 BKN060
     FM251000 01010KT 5SM -SHRA OVC015
     FM251600 36011KT P6SM VCSH SCT015 BKN030
      AMD LTD TO CLD VIS AND WIND=

USA.gov is the U.S. government's official web portal to all federal, state and local government web resources and services.